Time;durP1;ratioP1;P1;durP2;ratioP2;P2;SDS_P1;SDS_P2;PMS_P1;PMS_P2;Temp;Humidity;BMP_temperature;BMP_pressure;BME280_temperature;BME280_humidity;BME280_pressure;Samples;Min_cycle;Max_cycle;Signal;HPM_P1;HPM_P2
2022/03/12 00:01:54;;;;;;;10.80;7.47;;;10.40;96.70;;;;;;4983754;28;20050;-75
2022/03/12 00:04:23;;;;;;;11.02;8.02;;;10.20;96.70;;;;;;4999492;28;20073;-76
2022/03/12 00:06:53;;;;;;;14.52;8.50;;;10.30;96.70;;;;;;4999963;28;20050;-75
2022/03/12 00:09:23;;;;;;;13.23;9.75;;;10.30;96.70;;;;;;4968360;28;20046;-75
2022/03/12 00:11:56;;;;;;;15.70;9.57;;;10.20;96.70;;;;;;4999928;28;20050;-75
2022/03/12 00:14:26;;;;;;;12.65;8.73;;;10.10;96.70;;;;;;4986456;28;20105;-75
2022/03/12 00:16:55;;;;;;;12.35;9.07;;;10.20;96.70;;;;;;4985313;28;20433;-75
2022/03/12 00:19:24;;;;;;;11.73;8.80;;;10.40;96.70;;;;;;4984900;28;20424;-75
2022/03/12 00:21:55;;;;;;;14.13;8.93;;;10.40;96.70;;;;;;4980952;28;20053;-75
2022/03/12 00:24:28;;;;;;;13.55;9.00;;;10.30;96.70;;;;;;4982809;28;20125;-74
2022/03/12 00:26:56;;;;;;;13.65;8.85;;;10.40;96.70;;;;;;4982463;28;20522;-75
2022/03/12 00:29:26;;;;;;;14.98;9.50;;;10.40;96.70;;;;;;5000507;28;20712;-75
2022/03/12 00:31:54;;;;;;;12.40;8.63;;;10.40;96.70;;;;;;4967537;28;20058;-75
2022/03/12 00:34:23;;;;;;;11.50;8.50;;;10.30;96.70;;;;;;4999798;28;20083;-75
2022/03/12 00:36:53;;;;;;;13.20;8.88;;;10.40;96.70;;;;;;4982609;28;20100;-76
2022/03/12 00:39:21;;;;;;;12.85;8.85;;;10.30;96.70;;;;;;4985587;28;20050;-75
2022/03/12 00:41:50;;;;;;;13.60;9.50;;;10.10;96.70;;;;;;4984289;28;20066;-75
2022/03/12 00:44:19;;;;;;;14.43;9.02;;;10.10;96.70;;;;;;4999832;28;20101;-75
2022/03/12 00:46:47;;;;;;;12.68;8.95;;;10.10;96.70;;;;;;4967438;28;20049;-75
2022/03/12 00:49:16;;;;;;;12.32;8.82;;;10.20;96.70;;;;;;4967840;28;20167;-75
2022/03/12 00:51:45;;;;;;;15.73;9.65;;;10.10;96.70;;;;;;4966896;28;20038;-75
2022/03/12 00:54:15;;;;;;;15.52;9.23;;;10.00;96.70;;;;;;4985167;28;20418;-75
2022/03/12 00:56:43;;;;;;;10.90;8.65;;;9.90;96.70;;;;;;4982661;28;20046;-77
2022/03/12 00:59:12;;;;;;;12.00;8.57;;;10.00;96.70;;;;;;4984591;28;20128;-76
2022/03/12 01:01:41;;;;;;;13.48;8.82;;;10.10;96.70;;;;;;4999800;28;20073;-75
2022/03/12 01:04:10;;;;;;;12.30;8.55;;;10.10;96.70;;;;;;4999087;28;20043;-76
2022/03/12 01:06:39;;;;;;;12.23;8.32;;;9.90;96.70;;;;;;4981848;28;20101;-75
2022/03/12 01:09:07;;;;;;;14.07;8.65;;;10.00;96.70;;;;;;4979826;28;20140;-76
2022/03/12 01:11:38;;;;;;;12.45;8.63;;;10.10;96.70;;;;;;4983713;28;20133;-76
2022/03/12 01:14:08;;;;;;;13.20;9.57;;;10.10;96.70;;;;;;4984412;28;20053;-76
2022/03/12 01:16:36;;;;;;;13.95;8.57;;;10.10;96.70;;;;;;4984278;28;20078;-75
2022/03/12 01:19:05;;;;;;;13.02;8.90;;;10.10;96.70;;;;;;4966931;28;20153;-75
2022/03/12 01:21:36;;;;;;;13.35;8.73;;;10.10;96.70;;;;;;4967137;28;20046;-75
2022/03/12 01:24:05;;;;;;;14.63;9.35;;;10.10;96.70;;;;;;4967459;28;20049;-76
2022/03/12 01:26:35;;;;;;;13.55;8.93;;;9.80;96.70;;;;;;4966296;28;20042;-76
2022/03/12 01:29:06;;;;;;;12.32;8.10;;;9.90;96.70;;;;;;4999823;28;20069;-76
2022/03/12 01:31:35;;;;;;;12.57;9.05;;;9.90;96.70;;;;;;4984172;28;20093;-76
2022/03/12 01:34:04;;;;;;;11.55;8.38;;;9.60;96.70;;;;;;4983490;28;20034;-76
2022/03/12 01:36:32;;;;;;;11.55;8.95;;;9.60;96.70;;;;;;4966903;28;20520;-75
2022/03/12 01:39:01;;;;;;;12.38;7.82;;;9.70;96.70;;;;;;4982623;28;20556;-76
2022/03/12 01:41:32;;;;;;;12.45;8.27;;;9.50;96.70;;;;;;4983543;28;20050;-76
2022/03/12 01:44:02;;;;;;;12.13;8.23;;;9.70;96.70;;;;;;4998565;28;20052;-75
2022/03/12 01:46:35;;;;;;;12.60;8.05;;;9.70;96.70;;;;;;4982749;28;20143;-75
2022/03/12 01:49:05;;;;;;;12.13;8.30;;;9.70;96.70;;;;;;4999593;28;20046;-76
2022/03/12 01:51:34;;;;;;;12.75;8.20;;;9.80;96.70;;;;;;4972077;28;20054;-75
2022/03/12 01:54:03;;;;;;;13.77;8.60;;;9.80;96.70;;;;;;4984287;28;20046;-75
2022/03/12 01:56:34;;;;;;;12.82;8.30;;;9.90;96.70;;;;;;4981816;28;20710;-76
2022/03/12 01:59:02;;;;;;;11.48;7.75;;;9.90;96.50;;;;;;4999357;28;20042;-76
2022/03/12 02:01:33;;;;;;;12.70;7.47;;;10.00;96.70;;;;;;4982782;28;20121;-76
2022/03/12 02:04:07;;;;;;;;;;;10.00;96.70;;;;;;4998765;28;20050;-75
2022/03/12 02:06:42;;;;;;;10.27;7.40;;;10.00;96.60;;;;;;4980174;28;19934;-76
2022/03/12 02:09:14;;;;;;;11.23;8.30;;;10.00;96.10;;;;;;4991607;28;20093;-75
2022/03/12 02:11:45;;;;;;;12.02;7.88;;;10.00;96.30;;;;;;4998364;28;20042;-76
2022/03/12 02:14:16;;;;;;;14.02;8.93;;;10.00;96.30;;;;;;4983046;28;20134;-76
2022/03/12 02:16:49;;;;;;;13.25;8.60;;;10.00;95.90;;;;;;4987158;28;20046;-81
2022/03/12 02:19:20;;;;;;;11.77;7.63;;;10.00;96.10;;;;;;4971015;28;20058;-76
2022/03/12 02:21:51;;;;;;;11.05;8.18;;;10.00;95.70;;;;;;5018987;28;20046;-80
2022/03/12 02:24:24;;;;;;;11.00;7.03;;;9.80;95.80;;;;;;4986786;28;20054;-79
2022/03/12 02:26:55;;;;;;;11.88;8.18;;;9.80;96.60;;;;;;5002558;28;20046;-81
2022/03/12 02:29:24;;;;;;;10.65;7.00;;;9.80;95.80;;;;;;5010460;28;20046;-79
2022/03/12 02:31:56;;;;;;;11.45;8.00;;;9.70;95.90;;;;;;5005249;28;20038;-80
2022/03/12 02:34:30;;;;;;;12.25;8.00;;;9.80;96.50;;;;;;5003118;28;20066;-79
2022/03/12 02:36:58;;;;;;;11.60;8.18;;;9.60;95.70;;;;;;4989791;28;20070;-79
2022/03/12 02:39:28;;;;;;;13.45;8.82;;;9.60;96.40;;;;;;5004329;28;20046;-80
2022/03/12 02:41:56;;;;;;;10.93;7.53;;;9.60;95.70;;;;;;5002395;28;20046;-80
2022/03/12 02:44:25;;;;;;;11.75;7.82;;;9.40;96.20;;;;;;4987490;28;20043;-80
2022/03/12 02:47:15;;;;;;;12.43;8.60;;;9.40;96.40;;;;;;4985626;28;20571;-80
2022/03/12 02:49:49;;;;;;;11.68;7.22;;;9.30;96.40;;;;;;4982555;28;20281;-80
2022/03/12 02:52:18;;;;;;;13.88;8.10;;;9.50;96.70;;;;;;4987481;28;20049;-80
2022/03/12 02:54:49;;;;;;;11.60;7.70;;;9.60;96.30;;;;;;4969294;28;20046;-80
2022/03/12 02:57:19;;;;;;;9.30;7.20;;;9.50;96.20;;;;;;5000927;28;20443;-79
2022/03/12 02:59:48;;;;;;;10.55;7.20;;;9.50;95.90;;;;;;4991545;28;20042;-80
2022/03/12 03:02:16;;;;;;;9.23;7.22;;;9.30;95.30;;;;;;4973945;28;20074;-80
2022/03/12 03:04:46;;;;;;;11.80;7.47;;;9.30;96.50;;;;;;4990206;28;20038;-80
2022/03/12 03:07:14;;;;;;;12.88;7.65;;;9.50;96.30;;;;;;4989989;28;20046;-79
2022/03/12 03:09:42;;;;;;;10.70;7.45;;;9.60;96.10;;;;;;5005860;28;20070;-81
2022/03/12 03:12:15;;;;;;;11.50;7.45;;;9.50;95.90;;;;;;5007178;28;20476;-79
2022/03/12 03:14:49;;;;;;;10.45;7.35;;;9.40;95.60;;;;;;4985085;28;20587;-75
2022/03/12 03:17:18;;;;;;;10.25;7.03;;;9.40;96.60;;;;;;4989564;28;20046;-80
2022/03/12 03:19:46;;;;;;;10.07;7.30;;;9.40;95.90;;;;;;4990014;28;20046;-81
2022/03/12 03:22:15;;;;;;;10.05;7.03;;;9.50;95.80;;;;;;5005619;28;20469;-80
2022/03/12 03:24:43;;;;;;;10.90;7.30;;;9.40;95.40;;;;;;4990169;28;20117;-80
2022/03/12 03:27:11;;;;;;;8.55;6.47;;;9.40;95.60;;;;;;4989926;28;20126;-81
2022/03/12 03:29:41;;;;;;;11.13;6.78;;;9.10;94.80;;;;;;4990194;28;20066;-80
2022/03/12 03:32:09;;;;;;;8.93;6.53;;;9.20;96.00;;;;;;4991617;28;20069;-78
2022/03/12 03:34:39;;;;;;;9.73;6.95;;;9.00;95.90;;;;;;5005006;28;20559;-80
2022/03/12 03:37:08;;;;;;;10.25;6.43;;;9.20;96.10;;;;;;5005400;28;20439;-80
2022/03/12 03:39:39;;;;;;;11.27;7.55;;;9.10;95.90;;;;;;4974252;28;20547;-80
2022/03/12 03:42:08;;;;;;;9.63;6.60;;;9.20;95.60;;;;;;5004344;28;20038;-80
2022/03/12 03:44:36;;;;;;;8.95;6.35;;;9.20;95.50;;;;;;4988552;28;20042;-80
2022/03/12 03:47:06;;;;;;;8.60;6.28;;;9.20;95.40;;;;;;4988854;28;20051;-80
2022/03/12 03:49:34;;;;;;;11.05;6.82;;;9.00;95.20;;;;;;4972144;28;20048;-79
2022/03/12 03:52:03;;;;;;;9.52;6.97;;;9.10;95.30;;;;;;4989506;28;20046;-80
2022/03/12 03:54:32;;;;;;;9.63;6.47;;;9.10;95.20;;;;;;5004983;28;20060;-80
2022/03/12 03:57:00;;;;;;;9.68;6.65;;;9.00;95.40;;;;;;4970742;28;20551;-80
2022/03/12 03:59:29;;;;;;;8.75;6.43;;;9.00;95.10;;;;;;5004494;28;20089;-80
2022/03/12 04:01:57;;;;;;;11.32;6.60;;;9.00;95.30;;;;;;4988504;28;20038;-80
2022/03/12 04:04:29;;;;;;;11.73;6.55;;;9.00;95.80;;;;;;4989509;28;20046;-80
2022/03/12 04:06:58;;;;;;;10.15;6.85;;;9.00;94.80;;;;;;4989420;28;20042;-80
2022/03/12 04:09:27;;;;;;;9.02;6.05;;;8.90;94.90;;;;;;5004877;28;20612;-80
2022/03/12 04:11:55;;;;;;;8.27;6.05;;;8.80;94.90;;;;;;5004773;28;20050;-80
2022/03/12 04:14:25;;;;;;;9.40;6.60;;;8.80;95.00;;;;;;4972127;28;20038;-80
2022/03/12 04:16:54;;;;;;;11.13;6.35;;;8.80;94.50;;;;;;4987231;28;20153;-80
2022/03/12 04:19:23;;;;;;;8.75;5.75;;;8.80;95.30;;;;;;4972004;28;20049;-80
2022/03/12 04:21:56;;;;;;;8.48;6.07;;;8.90;95.40;;;;;;5008895;28;20054;-81
2022/03/12 04:24:24;;;;;;;10.10;6.40;;;8.80;94.90;;;;;;4988306;28;20705;-80
2022/03/12 04:26:53;;;;;;;9.82;6.30;;;8.80;95.00;;;;;;4988421;28;20049;-80
2022/03/12 04:29:21;;;;;;;9.18;6.50;;;9.00;95.20;;;;;;5004030;28;20050;-80
2022/03/12 04:31:49;;;;;;;11.05;6.47;;;9.00;95.10;;;;;;4988620;28;20649;-80
2022/03/12 04:34:17;;;;;;;8.95;6.47;;;8.90;95.40;;;;;;5007159;28;20049;-80
2022/03/12 04:36:46;;;;;;;9.98;6.68;;;8.90;95.40;;;;;;4975953;28;20105;-80
2022/03/12 04:39:18;;;;;;;9.45;6.72;;;8.80;96.00;;;;;;4989269;28;20051;-80
2022/03/12 04:41:46;;;;;;;9.70;6.78;;;8.80;96.20;;;;;;4989568;28;20050;-79
2022/03/12 04:44:14;;;;;;;10.15;6.03;;;8.90;96.20;;;;;;4970800;28;20035;-80
2022/03/12 04:46:43;;;;;;;9.73;5.70;;;9.00;96.00;;;;;;4971260;28;20057;-80
2022/03/12 04:49:11;;;;;;;8.57;6.15;;;8.90;95.70;;;;;;4970771;28;20050;-81
2022/03/12 04:51:39;;;;;;;10.85;6.90;;;8.80;96.20;;;;;;4988259;28;20065;-79
2022/03/12 04:54:08;;;;;;;8.90;6.63;;;8.60;96.10;;;;;;4987720;28;20108;-80
2022/03/12 04:56:38;;;;;;;8.32;6.03;;;8.50;95.80;;;;;;5002984;28;20046;-79
2022/03/12 04:59:06;;;;;;;8.23;5.57;;;8.60;96.40;;;;;;4998139;28;20456;-80
2022/03/12 05:01:34;;;;;;;9.00;5.97;;;8.70;96.50;;;;;;4970920;28;20050;-80
2022/03/12 05:04:03;;;;;;;10.10;6.53;;;8.80;96.10;;;;;;4987060;28;20054;-80
2022/03/12 05:06:31;;;;;;;9.15;6.40;;;8.80;95.80;;;;;;4987072;28;20073;-80
2022/03/12 05:08:59;;;;;;;9.82;6.50;;;8.80;95.40;;;;;;4988205;28;20046;-80
2022/03/12 05:11:27;;;;;;;9.55;6.13;;;8.70;95.80;;;;;;4988106;28;20050;-80
2022/03/12 05:13:56;;;;;;;10.40;5.70;;;8.70;96.20;;;;;;4997009;28;20052;-80
2022/03/12 05:16:27;;;;;;;9.02;6.38;;;8.80;96.10;;;;;;4991077;28;20038;-80
2022/03/12 05:18:57;;;;;;;7.97;5.57;;;8.80;95.80;;;;;;5004393;28;20046;-80
2022/03/12 05:21:28;;;;;;;10.35;6.13;;;8.80;96.10;;;;;;4987520;28;20099;-79
2022/03/12 05:23:56;;;;;;;9.10;5.60;;;8.70;96.20;;;;;;4987839;28;20042;-80
2022/03/12 05:26:24;;;;;;;8.45;5.75;;;8.80;96.30;;;;;;5006362;28;20263;-80
2022/03/12 05:28:52;;;;;;;9.05;6.00;;;8.80;95.90;;;;;;4970236;28;20128;-80
2022/03/12 05:31:22;;;;;;;8.40;5.70;;;8.90;96.00;;;;;;4972260;28;20046;-80
2022/03/12 05:33:50;;;;;;;11.00;5.90;;;9.00;95.90;;;;;;4973825;28;20046;-80
2022/03/12 05:36:18;;;;;;;9.35;6.10;;;8.90;95.60;;;;;;4987084;28;20133;-80
2022/03/12 05:38:48;;;;;;;10.38;6.15;;;8.70;96.00;;;;;;4990276;28;20057;-80
2022/03/12 05:41:16;;;;;;;10.10;5.90;;;8.80;96.00;;;;;;4969927;28;20496;-80
2022/03/12 05:43:47;;;;;;;9.95;6.68;;;8.80;95.80;;;;;;4987773;28;20074;-80
2022/03/12 05:46:19;;;;;;;13.07;7.75;;;8.60;95.60;;;;;;4987653;28;20046;-80
2022/03/12 05:48:53;;;;;;;11.70;6.70;;;8.40;95.90;;;;;;4986745;28;20141;-80
2022/03/12 05:51:22;;;;;;;12.27;8.00;;;8.40;96.70;;;;;;4987164;28;20065;-79
2022/03/12 05:53:50;;;;;;;14.27;7.22;;;8.60;96.70;;;;;;4987147;28;20109;-80
2022/03/12 05:56:18;;;;;;;11.43;8.23;;;8.60;96.70;;;;;;4972488;28;20074;-80
2022/03/12 05:58:46;;;;;;;12.55;8.27;;;8.80;96.50;;;;;;4985551;28;20038;-80
2022/03/12 06:01:14;;;;;;;12.43;7.68;;;8.70;96.70;;;;;;4986403;28;20132;-80
2022/03/12 06:03:42;;;;;;;10.73;7.72;;;8.70;96.70;;;;;;4987238;28;20121;-79
2022/03/12 06:06:12;;;;;;;11.30;7.32;;;8.80;96.50;;;;;;4971162;28;20515;-79
2022/03/12 06:08:41;;;;;;;9.18;6.45;;;8.70;96.70;;;;;;5001895;28;20042;-80
2022/03/12 06:11:12;;;;;;;8.65;5.95;;;8.70;96.70;;;;;;4968904;28;20165;-80
2022/03/12 06:13:43;;;;;;;9.60;6.28;;;8.60;96.70;;;;;;4985789;28;20046;-80
2022/03/12 06:16:11;;;;;;;10.45;6.43;;;8.60;96.70;;;;;;4971574;28;20053;-79
2022/03/12 06:18:40;;;;;;;8.90;6.07;;;8.80;96.70;;;;;;4968792;28;20085;-80
2022/03/12 06:21:08;;;;;;;8.77;5.53;;;8.50;96.60;;;;;;4968804;28;20061;-80
2022/03/12 06:23:38;;;;;;;9.23;5.97;;;8.40;96.70;;;;;;4968941;28;20047;-80
2022/03/12 06:26:10;;;;;;;9.45;5.95;;;8.40;96.70;;;;;;4985461;28;20042;-80
2022/03/12 06:28:40;;;;;;;7.13;5.10;;;8.50;96.70;;;;;;4967022;28;20050;-80
2022/03/12 06:31:09;;;;;;;8.10;5.25;;;8.60;96.70;;;;;;5002642;28;20046;-80
2022/03/12 06:33:38;;;;;;;9.38;5.45;;;8.70;96.70;;;;;;4985719;28;20062;-80
2022/03/12 06:36:07;;;;;;;11.02;6.32;;;8.70;96.70;;;;;;4965350;28;20073;-79
2022/03/12 06:38:37;;;;;;;7.80;5.32;;;8.70;96.70;;;;;;4965552;28;20055;-80
2022/03/12 06:41:07;;;;;;;7.00;5.18;;;8.70;96.70;;;;;;4966648;28;20057;-80
2022/03/12 06:43:42;;;;;;;9.15;5.68;;;8.90;96.70;;;;;;4967274;28;20049;-78
2022/03/12 06:46:14;;;;;;;8.30;5.82;;;9.00;96.70;;;;;;4978851;28;20400;-80
2022/03/12 06:48:45;;;;;;;7.95;5.45;;;9.00;96.70;;;;;;4996870;28;20139;-80
2022/03/12 06:51:13;;;;;;;6.05;4.88;;;9.10;96.70;;;;;;4998661;28;20043;-80
2022/03/12 06:53:41;;;;;;;7.05;4.85;;;9.10;96.70;;;;;;4982027;28;20694;-80
2022/03/12 06:56:11;;;;;;;9.27;5.93;;;9.10;96.70;;;;;;4965963;28;20429;-78
2022/03/12 06:58:39;;;;;;;8.40;5.85;;;9.10;96.70;;;;;;4975448;28;20050;-80
2022/03/12 07:01:07;;;;;;;10.52;6.05;;;9.20;96.70;;;;;;5000395;28;20101;-81
2022/03/12 07:03:35;;;;;;;8.35;6.00;;;9.10;96.70;;;;;;4999532;28;20532;-82
2022/03/12 07:06:04;;;;;;;9.43;5.90;;;9.20;96.70;;;;;;4966863;28;20520;-81
2022/03/12 07:08:32;;;;;;;7.85;5.40;;;9.10;96.70;;;;;;4969223;28;20050;-84
2022/03/12 07:11:01;;;;;;;10.52;5.78;;;9.10;96.70;;;;;;4968207;28;20050;-84
2022/03/12 07:13:31;;;;;;;8.05;5.38;;;9.10;96.70;;;;;;4999893;28;20098;-83
2022/03/12 07:16:04;;;;;;;7.63;4.95;;;9.20;96.70;;;;;;4984981;28;20069;-79
2022/03/12 07:18:33;;;;;;;8.65;5.60;;;9.20;96.70;;;;;;4965495;28;20837;-77
2022/03/12 07:21:01;;;;;;;9.30;5.40;;;9.30;96.70;;;;;;4975855;28;20154;-79
2022/03/12 07:23:29;;;;;;;10.35;6.07;;;9.30;96.70;;;;;;4993058;28;20098;-77
2022/03/12 07:25:57;;;;;;;7.65;5.30;;;9.20;96.60;;;;;;4962408;28;20153;-76
2022/03/12 07:28:27;;;;;;;9.80;6.25;;;9.20;96.70;;;;;;4991663;28;20559;-76
2022/03/12 07:30:57;;;;;;;7.07;5.07;;;9.20;96.40;;;;;;4992466;28;20062;-77
2022/03/12 07:33:26;;;;;;;8.50;5.38;;;9.30;96.70;;;;;;4992463;28;20216;-79
2022/03/12 07:35:55;;;;;;;7.50;5.80;;;9.50;96.70;;;;;;4991860;28;20070;-80
2022/03/12 07:38:23;;;;;;;10.45;6.20;;;9.50;96.70;;;;;;4964602;28;20093;-80
2022/03/12 07:40:51;;;;;;;7.65;5.90;;;9.30;96.70;;;;;;4997485;28;20043;-80
2022/03/12 07:43:20;;;;;;;10.73;6.07;;;9.30;96.70;;;;;;4998510;28;20049;-79
2022/03/12 07:45:48;;;;;;;9.52;6.45;;;9.30;96.60;;;;;;4966601;28;20129;-80
2022/03/12 07:48:18;;;;;;;9.30;6.28;;;9.30;96.70;;;;;;4997578;28;20515;-80
2022/03/12 07:51:06;;;;;;;10.10;6.32;;;9.40;96.70;;;;;;4998270;28;20619;-79
2022/03/12 07:53:34;;;;;;;10.95;6.47;;;9.40;96.60;;;;;;4997413;28;20841;-80
2022/03/12 07:56:02;;;;;;;9.45;6.25;;;9.40;96.50;;;;;;4967088;28;20039;-80
2022/03/12 07:58:30;;;;;;;8.88;6.15;;;9.30;96.10;;;;;;4964554;28;20042;-80
2022/03/12 08:00:58;;;;;;;8.48;5.85;;;9.40;96.70;;;;;;5005079;28;20050;-80
2022/03/12 08:03:29;;;;;;;14.05;6.85;;;9.40;96.50;;;;;;4968883;28;20093;-80
2022/03/12 08:05:57;;;;;;;10.10;6.70;;;9.50;96.50;;;;;;4998982;28;20050;-80
2022/03/12 08:08:26;;;;;;;11.32;6.38;;;9.40;96.00;;;;;;4985167;28;20039;-79
2022/03/12 08:13:43;;;;;;;12.75;7.18;;;9.60;96.40;;;;;;4971250;28;20051;-79
2022/03/12 08:16:15;;;;;;;8.52;6.22;;;9.70;96.10;;;;;;5003944;28;20049;-79
2022/03/12 08:18:45;;;;;;;10.27;6.40;;;9.70;96.20;;;;;;4971648;28;20066;-84
2022/03/12 08:21:15;;;;;;;9.93;6.75;;;9.80;96.50;;;;;;5010035;28;20050;-84
2022/03/12 08:23:45;;;;;;;10.90;6.82;;;9.90;96.30;;;;;;4991627;28;20130;-83
2022/03/12 08:26:13;;;;;;;11.65;6.72;;;9.90;95.50;;;;;;4992665;28;20563;-84
2022/03/12 08:28:42;;;;;;;9.45;6.80;;;9.90;95.30;;;;;;4981844;28;20041;-84
2022/03/12 08:31:10;;;;;;;11.38;7.85;;;10.00;95.80;;;;;;4966994;28;20098;-84
2022/03/12 08:33:38;;;;;;;8.80;6.82;;;10.00;95.50;;;;;;4970857;28;20106;-85
2022/03/12 08:36:08;;;;;;;10.18;6.95;;;10.10;95.70;;;;;;4969715;28;20061;-84
2022/03/12 08:38:38;;;;;;;10.75;8.13;;;10.30;95.50;;;;;;4971231;28;20134;-85
2022/03/12 08:41:16;;;;;;;13.88;9.60;;;10.30;95.40;;;;;;5001711;28;20331;-85
2022/03/12 08:43:44;;;;;;;11.60;7.45;;;10.40;95.20;;;;;;4982264;28;20042;-84
2022/03/12 08:46:12;;;;;;;13.82;7.85;;;10.30;94.10;;;;;;4969195;28;20070;-84
2022/03/12 08:48:40;;;;;;;10.93;7.85;;;10.40;94.50;;;;;;4986555;28;20070;-82
2022/03/12 08:51:10;;;;;;;11.60;7.70;;;10.50;94.70;;;;;;4999937;28;20057;-84
2022/03/12 08:53:39;;;;;;;11.15;7.35;;;10.60;94.20;;;;;;4985641;28;20054;-84
2022/03/12 08:56:08;;;;;;;11.30;7.45;;;10.70;93.80;;;;;;4968339;28;20047;-85
2022/03/12 08:58:37;;;;;;;12.32;7.63;;;10.80;93.30;;;;;;4969445;28;20512;-84
2022/03/12 09:01:06;;;;;;;10.00;6.97;;;10.80;93.30;;;;;;5001219;28;20053;-82
2022/03/12 09:03:35;;;;;;;10.07;7.22;;;10.90;93.60;;;;;;4984935;28;20050;-83
2022/03/12 09:06:03;;;;;;;11.68;8.20;;;11.00;93.90;;;;;;4984515;28;20085;-82
2022/03/12 09:08:34;;;;;;;12.13;8.02;;;11.10;93.80;;;;;;4969098;28;20054;-82
2022/03/12 09:11:02;;;;;;;15.63;8.88;;;11.20;95.20;;;;;;4968886;28;20766;-82
2022/03/12 09:13:30;;;;;;;15.23;7.72;;;11.20;93.40;;;;;;5001680;28;20145;-83
2022/03/12 09:16:00;;;;;;;14.10;8.80;;;11.30;94.40;;;;;;4985666;28;20408;-85
2022/03/12 09:18:28;;;;;;;12.15;8.38;;;11.40;94.70;;;;;;4984888;28;20120;-82
2022/03/12 09:20:56;;;;;;;14.68;9.77;;;11.40;93.60;;;;;;4985686;28;20045;-82
2022/03/12 09:23:24;;;;;;;14.40;9.48;;;11.40;93.90;;;;;;5000957;28;20051;-83
2022/03/12 09:25:54;;;;;;;13.25;8.95;;;11.50;92.50;;;;;;4969469;28;20047;-83
2022/03/12 09:28:26;;;;;;;13.15;8.90;;;11.50;91.90;;;;;;5001714;28;20077;-84
2022/03/12 09:30:55;;;;;;;12.85;8.32;;;11.60;91.30;;;;;;4968945;28;20034;-83
2022/03/12 09:33:25;;;;;;;13.20;8.77;;;11.60;91.00;;;;;;4968839;28;20125;-86
2022/03/12 09:35:54;;;;;;;13.50;9.18;;;11.60;90.50;;;;;;4983298;28;20065;-84
2022/03/12 09:38:22;;;;;;;13.38;8.98;;;11.70;90.50;;;;;;4998260;28;20061;-83
2022/03/12 09:40:51;;;;;;;15.73;9.35;;;11.80;90.70;;;;;;4969419;28;20061;-85
2022/03/12 09:43:20;;;;;;;14.43;10.43;;;11.90;91.20;;;;;;4967126;28;20142;-83
2022/03/12 09:45:49;;;;;;;12.40;9.23;;;12.00;90.80;;;;;;4964228;28;20054;-84
2022/03/12 09:48:19;;;;;;;14.55;9.40;;;12.00;90.50;;;;;;4965135;28;20575;-79
2022/03/12 09:50:49;;;;;;;14.18;8.88;;;12.10;89.50;;;;;;4981155;28;20051;-82
2022/03/12 09:53:17;;;;;;;13.07;8.88;;;12.20;90.10;;;;;;4969301;28;20930;-84
2022/03/12 09:55:46;;;;;;;12.48;8.85;;;12.30;89.90;;;;;;4984827;28;20504;-84
2022/03/12 09:58:14;;;;;;;13.75;8.85;;;12.40;89.90;;;;;;5001059;28;20046;-83
2022/03/12 10:00:44;;;;;;;12.73;8.25;;;12.50;89.00;;;;;;5000691;28;20071;-84
2022/03/12 10:03:12;;;;;;;13.02;8.82;;;12.60;90.00;;;;;;5000278;28;20070;-84
2022/03/12 10:05:41;;;;;;;13.13;8.45;;;12.70;89.30;;;;;;4999741;28;20050;-84
2022/03/12 10:08:09;;;;;;;11.63;8.85;;;12.70;89.30;;;;;;4967799;28;20047;-85
2022/03/12 10:10:37;;;;;;;16.35;9.15;;;12.80;88.60;;;;;;4968564;28;20081;-83
2022/03/12 10:13:06;;;;;;;14.65;9.25;;;12.80;89.30;;;;;;4969701;28;20046;-85
2022/03/12 10:15:34;;;;;;;10.93;7.80;;;12.90;89.00;;;;;;4984570;28;20042;-86
2022/03/12 10:18:05;;;;;;;15.40;7.97;;;12.90;89.30;;;;;;4967744;28;20219;-86
2022/03/12 10:20:34;;;;;;;11.77;8.68;;;13.00;88.70;;;;;;4969937;28;20049;-85
2022/03/12 10:23:02;;;;;;;13.13;8.40;;;13.10;88.30;;;;;;4996968;28;20053;-86
2022/03/12 10:25:33;;;;;;;11.73;8.60;;;13.10;87.40;;;;;;4968132;28;20075;-84
2022/03/12 10:28:01;;;;;;;10.40;7.85;;;13.20;87.90;;;;;;4998538;28;20053;-85
2022/03/12 10:30:29;;;;;;;15.07;9.30;;;13.30;88.50;;;;;;5000531;28;20045;-84
2022/03/12 10:32:59;;;;;;;14.20;8.80;;;13.40;88.50;;;;;;4983625;28;20058;-84
2022/03/12 10:35:34;;;;;;;13.50;9.02;;;13.50;88.00;;;;;;4983569;28;20059;-84
2022/03/12 10:38:03;;;;;;;15.10;9.18;;;13.60;88.40;;;;;;5000082;28;20049;-84
2022/03/12 10:40:34;;;;;;;11.23;8.63;;;13.70;87.50;;;;;;4967399;28;20887;-84
2022/03/12 10:43:12;;;;;;;13.02;8.93;;;13.70;87.60;;;;;;4969430;28;20051;-82
2022/03/12 10:45:43;;;;;;;14.10;10.27;;;13.80;88.40;;;;;;4962652;28;20051;-81
2022/03/12 10:48:12;;;;;;;12.23;9.00;;;13.90;88.00;;;;;;4960031;28;20070;-80
2022/03/12 10:50:44;;;;;;;16.33;9.55;;;13.90;86.50;;;;;;4994664;28;20477;-79
2022/03/12 10:53:15;;;;;;;12.32;8.93;;;14.00;87.20;;;;;;4977041;28;20168;-79
2022/03/12 10:55:45;;;;;;;13.75;9.45;;;14.10;88.00;;;;;;4980361;28;20110;-80
2022/03/12 10:58:15;;;;;;;15.80;10.05;;;14.20;86.60;;;;;;4996817;28;20507;-79
2022/03/12 11:00:47;;;;;;;14.18;9.30;;;14.20;86.10;;;;;;4965697;28;20077;-80
2022/03/12 11:03:18;;;;;;;12.23;8.48;;;14.30;85.50;;;;;;4983324;28;20071;-81
2022/03/12 11:05:50;;;;;;;15.90;9.55;;;14.30;85.60;;;;;;4984571;28;20093;-81
2022/03/12 11:08:21;;;;;;;12.55;8.95;;;14.30;85.90;;;;;;4998191;28;20138;-83
2022/03/12 11:10:52;;;;;;;11.65;8.73;;;14.40;86.40;;;;;;4980236;28;20038;-80
2022/03/12 11:13:38;;;;;;;13.10;8.65;;;14.40;85.70;;;;;;4984622;28;20465;-82
2022/03/12 11:16:12;;;;;;;12.45;7.78;;;14.50;86.30;;;;;;5001588;28;20125;-81
2022/03/12 11:19:07;;;;;;;11.82;8.82;;;14.60;85.90;;;;;;4974327;28;20039;-82
2022/03/12 11:21:41;;;;;;;11.50;8.05;;;14.60;86.60;;;;;;4969568;28;20519;-81
2022/03/12 11:24:15;;;;;;;11.70;8.38;;;14.70;86.70;;;;;;4987930;28;20540;-80
2022/03/12 11:26:49;;;;;;;10.20;8.32;;;14.80;86.00;;;;;;4988964;28;20652;-80
2022/03/12 11:29:18;;;;;;;12.93;9.10;;;14.80;83.70;;;;;;5003511;28;20047;-81
2022/03/12 11:31:49;;;;;;;11.88;8.23;;;15.00;83.80;;;;;;5002412;28;20046;-81
2022/03/12 11:34:20;;;;;;;10.75;8.50;;;15.10;85.70;;;;;;4970438;28;20440;-80
2022/03/12 11:37:06;;;;;;;12.63;7.20;;;15.20;84.20;;;;;;4974955;28;20042;-81
2022/03/12 11:39:37;;;;;;;10.20;7.43;;;15.10;84.80;;;;;;5002713;28;20137;-80
2022/03/12 11:42:11;;;;;;;9.48;7.47;;;15.30;84.40;;;;;;4974358;28;20196;-81
2022/03/12 11:44:42;;;;;;;10.95;6.95;;;15.40;82.90;;;;;;4985700;28;20061;-81
2022/03/12 11:47:10;;;;;;;9.82;7.47;;;15.30;83.20;;;;;;5003444;28;20054;-80
2022/03/12 11:49:39;;;;;;;11.70;7.15;;;15.30;82.70;;;;;;4971178;28;20089;-81
2022/03/12 11:52:09;;;;;;;9.43;7.20;;;15.50;82.90;;;;;;5002531;28;20049;-81
2022/03/12 11:54:40;;;;;;;11.93;6.72;;;15.60;83.50;;;;;;4986916;28;20764;-78
2022/03/12 11:57:09;;;;;;;11.73;7.50;;;15.40;83.00;;;;;;4968602;28;20133;-79
2022/03/12 11:59:38;;;;;;;8.13;6.63;;;15.60;82.30;;;;;;5019470;28;20054;-84
2022/03/12 12:02:31;;;;;;;10.57;7.35;;;15.70;82.10;;;;;;4988048;28;20055;-79
2022/03/12 12:05:04;;;;;;;14.25;7.72;;;15.80;82.20;;;;;;4982637;28;20051;-79
2022/03/12 12:07:36;;;;;;;13.00;7.00;;;15.90;82.20;;;;;;4969238;28;20042;-78
2022/03/12 12:10:07;;;;;;;9.05;6.85;;;16.00;81.70;;;;;;4985185;28;20042;-78
2022/03/12 12:12:41;;;;;;;8.07;5.97;;;16.10;81.80;;;;;;5003490;28;20078;-78
2022/03/12 12:15:22;;;;;;;10.70;7.10;;;16.20;81.50;;;;;;4986815;28;20313;-79
2022/03/12 12:17:51;;;;;;;10.27;6.25;;;16.10;81.00;;;;;;4982645;28;20077;-79
2022/03/12 12:20:21;;;;;;;8.10;5.97;;;16.20;82.20;;;;;;4968976;28;20121;-79
2022/03/12 12:22:58;;;;;;;15.68;6.40;;;16.20;83.50;;;;;;4998492;28;20054;-79
2022/03/12 12:25:31;;;;;;;12.25;6.40;;;16.30;82.40;;;;;;4968206;28;20065;-81
2022/03/12 12:27:59;;;;;;;12.68;7.15;;;16.40;82.70;;;;;;4967948;28;20568;-79
2022/03/12 12:30:38;;;;;;;19.33;8.45;;;16.40;83.00;;;;;;4968695;28;20065;-80
2022/03/12 12:33:22;;;;;;;9.48;5.90;;;16.50;82.10;;;;;;4971276;28;20054;-80
2022/03/12 12:36:09;;;;;;;9.07;6.07;;;16.60;80.60;;;;;;4982588;28;20050;-79
2022/03/12 12:39:02;;;;;;;7.63;5.95;;;16.60;80.70;;;;;;4998895;28;20676;-78
2022/03/12 12:41:53;;;;;;;8.15;5.90;;;16.50;81.40;;;;;;4987212;28;20046;-78
2022/03/12 12:44:36;;;;;;;9.40;6.30;;;16.80;83.90;;;;;;5017015;28;20080;-79
2022/03/12 12:47:05;;;;;;;10.45;5.65;;;16.90;83.90;;;;;;4985575;28;20050;-79
2022/03/12 12:49:35;;;;;;;8.50;5.80;;;16.90;83.20;;;;;;4967091;28;20064;-76
2022/03/12 12:52:04;;;;;;;8.73;5.50;;;17.00;80.90;;;;;;4967859;28;20489;-75
2022/03/12 12:54:56;;;;;;;9.40;6.00;;;17.00;80.00;;;;;;4983221;28;20185;-75
2022/03/12 12:57:41;;;;;;;6.72;5.30;;;16.90;79.90;;;;;;4979443;28;20050;-77
2022/03/12 13:00:40;;;;;;;8.68;5.30;;;17.00;80.80;;;;;;4983801;28;20173;-76
2022/03/12 13:03:16;;;;;;;7.90;5.40;;;17.00;80.00;;;;;;4960073;28;20142;-78
2022/03/12 13:05:53;;;;;;;8.80;5.78;;;17.00;79.30;;;;;;4968531;28;20058;-78